createdAt,value
2023-01-19T00:00:39.487Z,71.48
2023-01-19T00:03:06.568Z,72.19
2023-01-19T00:05:33.230Z,71.29
2023-01-19T00:08:00.094Z,70.67
2023-01-19T00:10:26.871Z,69.57
2023-01-19T00:12:53.441Z,69.30
2023-01-19T00:15:20.041Z,70.71
2023-01-19T00:17:46.692Z,72.53
2023-01-19T00:20:13.382Z,73.15
2023-01-19T00:22:39.979Z,73.15
2023-01-19T00:25:06.933Z,72.43
2023-01-19T00:27:33.627Z,72.04
2023-01-19T00:30:00.355Z,71.03
2023-01-19T00:32:26.992Z,71.19
2023-01-19T00:34:53.588Z,71.73
2023-01-19T00:37:20.199Z,72.70
2023-01-19T00:39:46.859Z,71.27
2023-01-19T00:42:14.104Z,71.32
2023-01-19T00:44:40.739Z,71.12
2023-01-19T00:47:07.372Z,70.64
2023-01-19T00:49:34.012Z,71.02
2023-01-19T00:52:00.652Z,71.22
2023-01-19T00:54:27.684Z,70.48
2023-01-19T00:56:54.344Z,71.06
2023-01-19T00:59:20.947Z,70.34
2023-01-19T01:01:47.746Z,70.84
2023-01-19T01:04:14.674Z,70.47
2023-01-19T01:06:41.283Z,69.72
2023-01-19T01:09:07.926Z,69.71
2023-01-19T01:11:34.561Z,69.58
2023-01-19T01:14:01.159Z,69.50
2023-01-19T01:16:27.841Z,70.10
2023-01-19T01:18:54.491Z,70.15
2023-01-19T01:21:21.128Z,70.56
2023-01-19T01:23:47.793Z,70.20
2023-01-19T01:26:14.420Z,70.25
2023-01-19T01:28:41.014Z,70.49
2023-01-19T01:31:07.629Z,69.49
2023-01-19T01:33:40.821Z,70.44
2023-01-19T01:36:09.711Z,69.55
2023-01-19T01:38:36.351Z,70.78
2023-01-19T01:41:02.977Z,70.81
2023-01-19T01:43:49.049Z,70.91
2023-01-19T01:46:17.608Z,70.56
2023-01-19T01:48:50.131Z,71.13
2023-01-19T01:51:33.088Z,71.03
2023-01-19T01:54:08.654Z,70.37
2023-01-19T01:56:39.836Z,69.19
2023-01-19T01:59:18.097Z,69.16
2023-01-19T02:01:44.916Z,68.99
2023-01-19T02:04:11.699Z,69.58
2023-01-19T02:06:38.745Z,70.23
2023-01-19T02:09:11.104Z,70.88
2023-01-19T02:11:38.892Z,70.65
2023-01-19T02:14:06.081Z,70.41
2023-01-19T02:16:34.418Z,72.27
2023-01-19T02:19:01.087Z,70.79
2023-01-19T02:21:47.037Z,71.88
2023-01-19T02:24:14.462Z,72.38
2023-01-19T02:26:45.756Z,71.95
2023-01-19T02:29:17.586Z,71.07
2023-01-19T02:31:45.430Z,70.60
2023-01-19T02:34:18.711Z,70.01
2023-01-19T02:37:06.858Z,70.01
2023-01-19T02:39:44.159Z,69.92
2023-01-19T02:42:17.309Z,69.42
2023-01-19T02:44:50.384Z,69.33
2023-01-19T02:47:16.983Z,69.11
2023-01-19T02:49:43.824Z,68.53
2023-01-19T02:52:18.769Z,68.43
2023-01-19T02:55:12.046Z,68.58
2023-01-19T02:58:02.989Z,68.07
2023-01-19T03:01:22.525Z,68.03
2023-01-19T03:04:17.373Z,67.35
2023-01-19T03:06:53.065Z,67.78
2023-01-19T03:09:35.304Z,68.07
2023-01-19T03:12:25.447Z,68.87
2023-01-19T03:15:00.500Z,69.40
2023-01-19T03:17:31.398Z,69.26
2023-01-19T03:19:58.199Z,68.07
2023-01-19T03:22:29.364Z,67.20
2023-01-19T03:25:00.355Z,67.56
2023-01-19T03:27:35.937Z,67.33
2023-01-19T03:30:13.708Z,68.05
2023-01-19T03:32:49.691Z,66.87
2023-01-19T03:35:21.170Z,67.04
2023-01-19T03:37:51.953Z,67.31
2023-01-19T03:40:19.018Z,66.14
2023-01-19T03:42:49.410Z,65.18
2023-01-19T03:45:18.185Z,65.63
2023-01-19T03:47:45.134Z,64.41
2023-01-19T03:50:20.859Z,64.94
2023-01-19T03:53:06.739Z,64.58
2023-01-19T03:55:34.809Z,64.40
2023-01-19T03:58:01.722Z,64.55
2023-01-19T04:00:28.567Z,63.52
2023-01-19T04:02:55.424Z,63.57
2023-01-19T04:05:22.118Z,64.04
2023-01-19T04:07:49.751Z,65.73
2023-01-19T04:10:20.860Z,65.56
2023-01-19T04:12:47.695Z,65.88
2023-01-19T04:15:15.424Z,65.40
2023-01-19T04:17:42.190Z,63.97
2023-01-19T04:20:09.785Z,62.98
2023-01-19T04:22:36.443Z,63.17
2023-01-19T04:25:03.052Z,62.82
2023-01-19T04:27:29.666Z,65.17
2023-01-19T04:29:56.273Z,67.17
2023-01-19T04:32:22.856Z,67.22
2023-01-19T04:34:49.511Z,67.71
2023-01-19T04:37:16.163Z,67.21
2023-01-19T04:39:42.836Z,68.38
2023-01-19T04:42:09.451Z,67.92
2023-01-19T04:44:36.070Z,66.38
2023-01-19T04:47:02.757Z,66.02
2023-01-19T04:49:29.450Z,66.96
2023-01-19T04:51:56.429Z,66.62
2023-01-19T04:54:23.057Z,65.93
2023-01-19T04:56:49.737Z,65.00
2023-01-19T04:59:16.385Z,65.92
2023-01-19T05:01:42.992Z,65.64
2023-01-19T05:04:09.633Z,66.55
2023-01-19T05:06:36.229Z,68.80
2023-01-19T05:09:03.839Z,69.10
2023-01-19T05:11:30.432Z,69.45
2023-01-19T05:13:58.063Z,69.01
2023-01-19T05:16:24.740Z,67.20
2023-01-19T05:18:51.368Z,66.55
2023-01-19T05:21:18.378Z,66.05
2023-01-19T05:23:45.147Z,67.05
2023-01-19T05:26:11.931Z,67.62
2023-01-19T05:28:38.633Z,67.53
2023-01-19T05:31:06.072Z,68.39
2023-01-19T05:33:32.870Z,67.07
2023-01-19T05:35:59.562Z,69.23
2023-01-19T05:38:34.705Z,69.52
2023-01-19T05:41:01.992Z,69.01
2023-01-19T05:43:28.681Z,68.16
2023-01-19T05:45:55.348Z,69.30
2023-01-19T05:48:22.374Z,68.87
2023-01-19T05:50:49.059Z,69.32
2023-01-19T05:53:16.442Z,69.38
2023-01-19T05:55:43.204Z,68.03
2023-01-19T05:58:09.972Z,66.79
2023-01-19T06:00:36.710Z,65.77
2023-01-19T06:03:03.798Z,64.99
2023-01-19T06:05:30.978Z,65.93
2023-01-19T06:07:57.708Z,65.42
2023-01-19T06:10:24.481Z,66.78
2023-01-19T06:12:51.087Z,67.44
2023-01-19T06:15:18.058Z,66.51
2023-01-19T06:17:44.672Z,65.94
2023-01-19T06:20:11.727Z,67.79
2023-01-19T06:22:38.320Z,65.67
2023-01-19T06:25:05.176Z,67.64
2023-01-19T06:27:31.901Z,65.79
2023-01-19T06:29:58.533Z,65.15
2023-01-19T06:32:25.224Z,65.16
2023-01-19T06:34:53.977Z,65.48
2023-01-19T06:37:20.773Z,66.17
2023-01-19T06:39:47.388Z,66.79
2023-01-19T06:42:14.078Z,66.40
2023-01-19T06:44:40.714Z,64.56
2023-01-19T06:47:15.616Z,66.71
2023-01-19T06:49:43.135Z,67.29
2023-01-19T06:52:11.009Z,66.20
2023-01-19T06:54:38.077Z,65.28
2023-01-19T06:57:04.891Z,65.06
2023-01-19T06:59:31.904Z,65.38
2023-01-19T07:01:58.677Z,65.62
2023-01-19T07:04:25.440Z,64.41
2023-01-19T07:06:52.071Z,65.19
2023-01-19T07:09:18.785Z,69.40
2023-01-19T07:11:45.422Z,68.75
2023-01-19T07:14:12.107Z,69.01
2023-01-19T07:16:38.885Z,70.48
2023-01-19T07:19:05.787Z,69.49
2023-01-19T07:21:32.371Z,67.06
2023-01-19T07:23:58.973Z,67.32
2023-01-19T07:26:25.697Z,70.35
2023-01-19T07:28:52.618Z,70.81
2023-01-19T07:31:21.416Z,69.85
2023-01-19T07:33:48.211Z,68.89
2023-01-19T07:36:14.816Z,69.76
2023-01-19T07:38:41.511Z,70.35
2023-01-19T07:41:10.048Z,69.99
2023-01-19T07:43:36.743Z,68.41
2023-01-19T07:46:05.530Z,67.69
2023-01-19T07:48:32.267Z,65.82
2023-01-19T07:51:03.827Z,66.81
2023-01-19T07:53:30.464Z,67.05
2023-01-19T07:55:57.287Z,64.67
2023-01-19T07:58:24.669Z,64.17
2023-01-19T08:00:51.350Z,64.21
2023-01-19T08:03:18.144Z,65.02
2023-01-19T08:05:45.547Z,65.33
2023-01-19T08:08:12.271Z,66.73
2023-01-19T08:10:39.028Z,64.94
2023-01-19T08:13:05.656Z,62.48
2023-01-19T08:15:32.292Z,61.01
2023-01-19T08:18:03.834Z,60.78
2023-01-19T08:20:30.516Z,60.64
2023-01-19T08:22:57.152Z,60.56
2023-01-19T08:25:23.792Z,61.87
2023-01-19T08:27:54.849Z,61.48
2023-01-19T08:30:21.485Z,63.22
2023-01-19T08:32:48.078Z,62.13
2023-01-19T08:35:14.727Z,61.89
2023-01-19T08:37:41.352Z,63.11
2023-01-19T08:40:08.841Z,62.47
2023-01-19T08:42:35.480Z,63.61
2023-01-19T08:45:02.138Z,63.48
2023-01-19T08:47:29.713Z,62.12
2023-01-19T08:49:56.366Z,62.34
2023-01-19T08:52:22.975Z,63.58
2023-01-19T08:54:49.611Z,62.60
2023-01-19T08:57:16.265Z,64.08
2023-01-19T08:59:42.857Z,63.76
2023-01-19T09:02:10.880Z,62.63
2023-01-19T09:04:37.569Z,61.58
2023-01-19T09:09:35.677Z,60.86
2023-01-19T09:12:02.396Z,60.19
2023-01-19T09:14:29.047Z,62.39
2023-01-19T09:16:55.740Z,60.62
2023-01-19T09:19:22.384Z,61.39
2023-01-19T09:21:49.229Z,59.82
2023-01-19T09:24:15.887Z,56.11
2023-01-19T09:26:42.572Z,57.09
2023-01-19T09:29:09.211Z,57.12
2023-01-19T09:31:35.899Z,58.81
2023-01-19T09:34:02.599Z,60.07
2023-01-19T09:36:29.268Z,58.19
2023-01-19T09:38:58.865Z,56.91
2023-01-19T09:41:26.515Z,56.20
2023-01-19T09:43:59.463Z,56.68
2023-01-19T09:46:37.430Z,56.08
2023-01-19T09:49:16.705Z,59.07
2023-01-19T09:51:51.281Z,58.61
2023-01-19T09:54:29.133Z,58.02
2023-01-19T09:56:55.773Z,59.37
2023-01-19T09:59:33.652Z,58.54
2023-01-19T10:02:18.289Z,57.53
2023-01-19T10:05:01.108Z,58.84
2023-01-19T10:07:36.789Z,57.84
2023-01-19T10:10:28.887Z,59.73
2023-01-19T10:13:03.166Z,60.40
2023-01-19T10:15:54.574Z,62.43
2023-01-19T10:18:37.403Z,60.88
2023-01-19T10:21:31.437Z,57.62
2023-01-19T10:24:23.481Z,58.21
2023-01-19T10:26:53.262Z,57.08
2023-01-19T10:29:31.133Z,56.42
2023-01-19T10:32:29.598Z,55.88
2023-01-19T10:34:56.340Z,56.76
2023-01-19T10:37:32.652Z,57.76
2023-01-19T10:40:09.090Z,58.19
2023-01-19T10:42:37.397Z,58.77
2023-01-19T10:45:14.489Z,57.09
2023-01-19T10:47:43.875Z,57.65
2023-01-19T10:50:32.536Z,57.47
2023-01-19T10:53:02.683Z,56.59
2023-01-19T10:55:36.047Z,56.42
2023-01-19T10:58:02.707Z,56.83
2023-01-19T11:00:29.451Z,57.72
2023-01-19T11:02:56.143Z,59.25
2023-01-19T11:05:26.683Z,59.37
2023-01-19T11:07:53.644Z,59.44
2023-01-19T11:10:24.473Z,57.33
2023-01-19T11:13:28.423Z,59.08
2023-01-19T11:15:59.337Z,60.02
2023-01-19T11:18:34.131Z,59.38
2023-01-19T11:21:08.089Z,56.90
2023-01-19T11:23:39.830Z,58.44
2023-01-19T11:26:06.568Z,60.38
2023-01-19T11:28:44.840Z,60.88
2023-01-19T11:31:14.432Z,60.87
2023-01-19T11:33:42.439Z,58.10
2023-01-19T11:36:29.444Z,56.68
2023-01-19T11:38:59.212Z,56.44
2023-01-19T11:41:36.997Z,58.85
2023-01-19T11:44:22.502Z,58.08
2023-01-19T11:46:56.434Z,59.00
2023-01-19T11:49:51.855Z,59.32
2023-01-19T11:52:35.986Z,58.62
2023-01-19T11:55:05.342Z,57.31
2023-01-19T11:57:32.147Z,57.65
2023-01-19T12:00:04.484Z,59.03
2023-01-19T12:02:45.659Z,58.46
2023-01-19T12:05:16.724Z,57.41
2023-01-19T12:07:47.643Z,57.14
2023-01-19T12:10:23.384Z,59.52
2023-01-19T12:12:52.638Z,58.64
2023-01-19T12:15:41.903Z,57.47
2023-01-19T12:18:21.639Z,56.37
2023-01-19T12:20:56.359Z,57.04
2023-01-19T12:23:34.374Z,56.25
2023-01-19T12:26:16.156Z,57.43
2023-01-19T12:28:47.306Z,57.64
2023-01-19T12:31:20.285Z,57.09
2023-01-19T12:33:48.058Z,55.80
2023-01-19T12:36:26.605Z,58.43
2023-01-19T12:39:01.447Z,57.76
2023-01-19T12:41:37.783Z,58.33
2023-01-19T12:44:10.197Z,57.51
2023-01-19T12:46:50.637Z,57.71
2023-01-19T12:49:32.638Z,57.41
2023-01-19T12:52:20.372Z,58.21
2023-01-19T12:54:58.793Z,55.10
2023-01-19T12:57:37.851Z,56.19
2023-01-19T13:00:24.432Z,56.04
2023-01-19T13:03:24.374Z,56.42
2023-01-19T13:05:54.181Z,57.72
2023-01-19T13:08:26.309Z,54.06
2023-01-19T13:11:00.529Z,54.61
2023-01-19T13:13:30.885Z,55.85
2023-01-19T13:16:20.606Z,57.49
2023-01-19T13:18:58.903Z,57.14
2023-01-19T13:21:31.561Z,58.29
2023-01-19T13:24:01.420Z,55.48
2023-01-19T13:26:40.076Z,55.90
2023-01-19T13:29:13.919Z,57.13
2023-01-19T13:31:43.669Z,59.35
2023-01-19T13:34:16.987Z,58.21
2023-01-19T13:36:51.954Z,60.27
2023-01-19T13:39:44.563Z,58.38
2023-01-19T13:42:20.993Z,58.19
2023-01-19T13:44:52.922Z,54.21
2023-01-19T13:47:25.090Z,53.08
2023-01-19T13:49:56.816Z,52.59
2023-01-19T13:52:28.864Z,53.33
2023-01-19T13:55:01.298Z,53.90
2023-01-19T13:57:31.957Z,52.95
2023-01-19T14:00:22.013Z,52.75
2023-01-19T14:03:13.310Z,54.67
2023-01-19T14:05:42.897Z,55.51
2023-01-19T14:08:09.536Z,54.08
2023-01-19T14:10:38.149Z,54.94
2023-01-19T14:13:17.011Z,56.41
2023-01-19T14:15:45.440Z,55.49
2023-01-19T14:18:25.189Z,55.53
2023-01-19T14:21:07.471Z,57.32
2023-01-19T14:24:12.595Z,56.90
2023-01-19T14:26:53.908Z,54.74
2023-01-19T14:29:29.513Z,54.21
2023-01-19T14:32:02.303Z,54.99
2023-01-19T14:34:50.089Z,55.89
2023-01-19T14:37:27.374Z,54.15
2023-01-19T14:40:02.960Z,52.59
2023-01-19T14:42:37.029Z,52.17
2023-01-19T14:45:16.633Z,53.53
2023-01-19T14:47:45.928Z,54.68
2023-01-19T14:50:26.363Z,54.06
2023-01-19T14:52:55.841Z,52.34
2023-01-19T14:55:32.152Z,52.09
2023-01-19T14:57:58.867Z,53.49
2023-01-19T15:00:25.673Z,53.03
2023-01-19T15:02:52.339Z,53.69
2023-01-19T15:05:19.979Z,53.27
2023-01-19T15:07:46.920Z,52.43
2023-01-19T15:10:23.475Z,54.11
2023-01-19T15:12:52.531Z,52.44
2023-01-19T15:15:33.872Z,51.33
2023-01-19T15:18:04.341Z,52.99
2023-01-19T15:20:31.085Z,51.07
2023-01-19T15:22:57.723Z,50.96
2023-01-19T15:25:24.716Z,51.42
2023-01-19T15:27:52.137Z,54.55
2023-01-19T15:30:26.171Z,51.49
2023-01-19T15:32:52.783Z,53.27
2023-01-19T15:35:21.967Z,53.52
2023-01-19T15:37:49.897Z,54.13
2023-01-19T15:40:18.850Z,54.01
2023-01-19T15:42:45.684Z,53.68
2023-01-19T15:45:36.814Z,53.30
2023-01-19T15:48:11.082Z,52.12
2023-01-19T15:50:43.359Z,52.51
2023-01-19T15:53:19.276Z,52.39
2023-01-19T15:55:53.915Z,54.68
2023-01-19T15:58:20.694Z,55.20
2023-01-19T16:00:54.119Z,54.73
2023-01-19T16:03:20.855Z,54.77
2023-01-19T16:05:47.533Z,54.30
2023-01-19T16:08:14.291Z,54.00
2023-01-19T16:10:41.868Z,56.29
2023-01-19T16:13:10.811Z,55.95
2023-01-19T16:15:39.238Z,56.25
2023-01-19T16:18:06.227Z,56.13
2023-01-19T16:20:32.838Z,55.56
2023-01-19T16:23:13.545Z,56.41
2023-01-19T16:25:41.323Z,56.58
2023-01-19T16:28:07.987Z,57.85
2023-01-19T16:30:35.802Z,57.32
2023-01-19T16:33:02.450Z,59.74
2023-01-19T16:35:29.045Z,59.14
2023-01-19T16:37:55.644Z,60.33
2023-01-19T16:40:22.260Z,60.37
2023-01-19T16:42:48.879Z,59.02
2023-01-19T16:45:15.596Z,59.55
2023-01-19T16:47:42.206Z,59.08
2023-01-19T16:50:11.709Z,58.66
2023-01-19T16:52:38.708Z,59.12
2023-01-19T16:55:06.231Z,59.49
2023-01-19T16:57:32.904Z,59.47
2023-01-19T16:59:59.576Z,59.84
2023-01-19T17:02:26.202Z,61.07
2023-01-19T17:04:52.906Z,61.23
2023-01-19T17:07:19.574Z,62.29
2023-01-19T17:09:46.155Z,63.50
2023-01-19T17:12:12.807Z,63.87
2023-01-19T17:14:39.539Z,63.08
2023-01-19T17:17:06.191Z,65.68
2023-01-19T17:19:32.820Z,68.57
2023-01-19T17:21:59.418Z,69.90
2023-01-19T17:24:26.043Z,69.23
2023-01-19T17:26:52.691Z,69.53
2023-01-19T17:29:19.339Z,70.64
2023-01-19T17:31:46.081Z,71.16
2023-01-19T17:34:12.864Z,71.82
2023-01-19T17:36:39.490Z,72.34
2023-01-19T17:39:08.613Z,71.44
2023-01-19T17:41:36.052Z,70.85
2023-01-19T17:44:05.686Z,71.82
2023-01-19T17:46:36.437Z,70.13
2023-01-19T17:49:05.816Z,70.10
2023-01-19T17:51:33.606Z,69.72
2023-01-19T17:54:00.686Z,70.90
2023-01-19T17:56:30.111Z,71.04
2023-01-19T17:58:58.209Z,70.12
2023-01-19T18:01:28.198Z,70.88
2023-01-19T18:03:55.123Z,72.00
2023-01-19T18:06:22.283Z,71.84
2023-01-19T18:08:49.986Z,70.51
2023-01-19T18:11:19.098Z,70.41
2023-01-19T18:13:48.176Z,70.74
2023-01-19T18:16:21.498Z,69.74
2023-01-19T18:18:48.307Z,70.74
2023-01-19T18:21:16.448Z,71.70
2023-01-19T18:23:43.131Z,72.75
2023-01-19T18:26:18.590Z,72.47
2023-01-19T18:28:45.528Z,71.88
2023-01-19T18:31:15.460Z,70.38
2023-01-19T18:33:42.594Z,70.28
2023-01-19T18:36:10.403Z,69.67
2023-01-19T18:38:38.821Z,69.20
2023-01-19T18:41:12.547Z,69.58
2023-01-19T18:43:40.047Z,69.06
2023-01-19T18:46:07.054Z,68.76
2023-01-19T18:48:34.262Z,69.02
2023-01-19T18:51:05.951Z,69.07
2023-01-19T18:53:32.656Z,67.03
2023-01-19T18:56:01.513Z,66.05
2023-01-19T18:58:29.465Z,64.77
2023-01-19T19:00:56.581Z,65.21
2023-01-19T19:03:24.141Z,63.53
2023-01-19T19:05:50.856Z,65.53
2023-01-19T19:08:18.166Z,65.78
2023-01-19T19:10:45.114Z,65.51
2023-01-19T19:13:13.643Z,65.91
2023-01-19T19:15:40.472Z,67.46
2023-01-19T19:18:07.320Z,66.17
2023-01-19T19:20:33.989Z,66.58
2023-01-19T19:23:00.615Z,67.89
2023-01-19T19:25:27.229Z,67.81
2023-01-19T19:27:53.869Z,67.84
2023-01-19T19:30:20.883Z,68.10
2023-01-19T19:32:54.675Z,68.33
2023-01-19T19:35:21.709Z,68.21
2023-01-19T19:37:48.998Z,69.15
2023-01-19T19:40:16.341Z,67.43
2023-01-19T19:42:43.119Z,66.47
2023-01-19T19:45:11.166Z,66.52
2023-01-19T19:47:37.799Z,67.55
2023-01-19T19:50:04.784Z,66.82
2023-01-19T19:52:31.438Z,64.79
2023-01-19T19:54:58.112Z,63.80
2023-01-19T19:57:25.088Z,63.73
2023-01-19T19:59:52.173Z,62.27
2023-01-19T20:02:18.861Z,62.78
2023-01-19T20:04:45.648Z,61.34
2023-01-19T20:07:12.337Z,61.07
2023-01-19T20:09:38.957Z,63.79
2023-01-19T20:12:05.973Z,62.18
2023-01-19T20:14:32.563Z,61.67
2023-01-19T20:16:59.305Z,61.69
2023-01-19T20:19:25.935Z,61.17
2023-01-19T20:21:52.601Z,60.47
2023-01-19T20:24:20.537Z,61.20
2023-01-19T20:26:50.604Z,60.13
2023-01-19T20:29:21.442Z,58.83
2023-01-19T20:31:52.368Z,57.83
2023-01-19T20:34:21.928Z,57.52
2023-01-19T20:36:48.903Z,59.50
2023-01-19T20:39:17.872Z,59.16
2023-01-19T20:41:44.573Z,58.82
2023-01-19T20:44:24.173Z,60.84
2023-01-19T20:46:51.923Z,61.29
2023-01-19T20:49:18.676Z,63.59
2023-01-19T20:51:45.705Z,62.74
2023-01-19T20:54:15.887Z,63.68
2023-01-19T20:56:42.636Z,62.74
2023-01-19T20:59:10.558Z,61.85
2023-01-19T21:01:38.397Z,60.18
2023-01-19T21:04:05.316Z,59.03
2023-01-19T21:06:32.393Z,59.99
2023-01-19T21:08:59.049Z,57.20
2023-01-19T21:11:25.740Z,58.08
2023-01-19T21:13:52.811Z,59.43
2023-01-19T21:16:19.433Z,61.10
2023-01-19T21:18:46.067Z,61.75
2023-01-19T21:21:24.594Z,63.84
2023-01-19T21:23:58.381Z,64.49
2023-01-19T21:26:25.124Z,64.80
2023-01-19T21:28:51.789Z,65.23
2023-01-19T21:31:18.521Z,65.77
2023-01-19T21:33:45.369Z,65.51
2023-01-19T21:36:12.132Z,64.75
2023-01-19T21:38:39.393Z,64.90
2023-01-19T21:41:11.554Z,65.34
2023-01-19T21:43:40.112Z,66.53
2023-01-19T21:46:17.598Z,65.72
2023-01-19T21:48:44.512Z,64.01
2023-01-19T21:51:12.005Z,64.09
2023-01-19T21:53:39.010Z,63.23
2023-01-19T21:56:10.632Z,61.38
2023-01-19T21:58:37.836Z,60.58
2023-01-19T22:01:07.952Z,58.34
2023-01-19T22:03:34.675Z,59.19
2023-01-19T22:06:06.426Z,58.82
2023-01-19T22:08:33.451Z,58.35
2023-01-19T22:11:09.646Z,58.05
2023-01-19T22:13:37.699Z,58.36
2023-01-19T22:16:10.451Z,57.47
2023-01-19T22:18:39.549Z,57.06
2023-01-19T22:21:09.207Z,56.80
2023-01-19T22:23:36.844Z,58.59
2023-01-19T22:26:05.035Z,61.90
2023-01-19T22:28:32.213Z,63.77
2023-01-19T22:31:07.345Z,64.13
2023-01-19T22:33:34.184Z,63.12
2023-01-19T22:36:16.374Z,60.99
2023-01-19T22:38:44.355Z,61.29
2023-01-19T22:41:15.839Z,61.06
2023-01-19T22:43:43.604Z,60.63
2023-01-19T22:46:10.336Z,59.01
2023-01-19T22:48:36.978Z,58.85
2023-01-19T22:51:04.189Z,58.65
2023-01-19T22:53:32.117Z,58.16
2023-01-19T22:55:58.763Z,57.61
2023-01-19T22:58:25.361Z,58.86
2023-01-19T23:00:52.127Z,58.88
2023-01-19T23:03:18.792Z,57.95
2023-01-19T23:05:45.400Z,58.92
2023-01-19T23:08:11.978Z,60.22
2023-01-19T23:10:39.043Z,59.05
2023-01-19T23:13:05.643Z,58.58
2023-01-19T23:15:33.381Z,58.44
2023-01-19T23:18:00.060Z,58.70
2023-01-19T23:20:26.674Z,58.47
2023-01-19T23:22:53.351Z,58.16
2023-01-19T23:25:20.050Z,58.74
2023-01-19T23:27:46.718Z,60.70
2023-01-19T23:30:13.835Z,60.39
2023-01-19T23:32:40.464Z,59.55
2023-01-19T23:35:07.415Z,60.23
2023-01-19T23:37:34.252Z,60.67
2023-01-19T23:40:00.889Z,60.10
2023-01-19T23:42:27.605Z,60.45
2023-01-19T23:44:54.271Z,59.26
2023-01-19T23:47:21.086Z,59.33
2023-01-19T23:49:47.723Z,59.20
2023-01-19T23:52:14.414Z,59.15
2023-01-19T23:54:41.148Z,59.11
2023-01-19T23:57:07.896Z,58.78
2023-01-19T23:59:34.499Z,58.44
